sensor_id;sensor_type;location;lat;lon;timestamp;temperature;humidity
13817;DHT22;6979;52.116;5.286;2024-01-07T00:01:34;6.40;99.90
13817;DHT22;6979;52.116;5.286;2024-01-07T00:04:01;6.40;99.90
13817;DHT22;6979;52.116;5.286;2024-01-07T00:06:28;6.40;99.90
13817;DHT22;6979;52.116;5.286;2024-01-07T00:08:55;6.40;99.90
13817;DHT22;6979;52.116;5.286;2024-01-07T00:11:22;6.30;99.90
13817;DHT22;6979;52.116;5.286;2024-01-07T00:13:49;6.30;99.90
13817;DHT22;6979;52.116;5.286;2024-01-07T00:16:16;6.30;99.90
13817;DHT22;6979;52.116;5.286;2024-01-07T00:18:44;6.30;99.90
13817;DHT22;6979;52.116;5.286;2024-01-07T00:21:14;6.30;99.90
13817;DHT22;6979;52.116;5.286;2024-01-07T00:23:42;6.30;99.90
13817;DHT22;6979;52.116;5.286;2024-01-07T00:26:09;6.30;99.90
13817;DHT22;6979;52.116;5.286;2024-01-07T00:28:36;6.30;99.90
13817;DHT22;6979;52.116;5.286;2024-01-07T00:31:03;6.30;99.90
13817;DHT22;6979;52.116;5.286;2024-01-07T00:33:31;6.30;99.90
13817;DHT22;6979;52.116;5.286;2024-01-07T00:36:02;6.30;99.90
13817;DHT22;6979;52.116;5.286;2024-01-07T00:38:29;6.30;99.90
13817;DHT22;6979;52.116;5.286;2024-01-07T00:40:56;6.30;99.90
13817;DHT22;6979;52.116;5.286;2024-01-07T00:43:22;6.30;99.90
13817;DHT22;6979;52.116;5.286;2024-01-07T00:45:49;6.30;99.90
13817;DHT22;6979;52.116;5.286;2024-01-07T00:48:16;6.30;99.90
13817;DHT22;6979;52.116;5.286;2024-01-07T00:50:43;6.30;99.90
13817;DHT22;6979;52.116;5.286;2024-01-07T00:53:11;6.30;99.90
13817;DHT22;6979;52.116;5.286;2024-01-07T00:55:39;6.30;99.90
13817;DHT22;6979;52.116;5.286;2024-01-07T00:58:07;6.30;99.90
13817;DHT22;6979;52.116;5.286;2024-01-07T01:00:34;6.20;99.90
13817;DHT22;6979;52.116;5.286;2024-01-07T01:03:01;6.20;99.90
13817;DHT22;6979;52.116;5.286;2024-01-07T01:05:29;6.20;99.90
13817;DHT22;6979;52.116;5.286;2024-01-07T01:07:56;6.20;99.90
13817;DHT22;6979;52.116;5.286;2024-01-07T01:10:24;6.20;99.90
13817;DHT22;6979;52.116;5.286;2024-01-07T01:12:52;6.20;99.90
13817;DHT22;6979;52.116;5.286;2024-01-07T01:15:19;6.20;99.90
13817;DHT22;6979;52.116;5.286;2024-01-07T01:17:50;6.20;99.90
13817;DHT22;6979;52.116;5.286;2024-01-07T01:20:19;6.20;99.90
13817;DHT22;6979;52.116;5.286;2024-01-07T01:22:47;6.20;99.90
13817;DHT22;6979;52.116;5.286;2024-01-07T01:25:14;6.10;99.90
13817;DHT22;6979;52.116;5.286;2024-01-07T01:27:42;6.20;99.90
13817;DHT22;6979;52.116;5.286;2024-01-07T01:30:10;6.20;99.90
13817;DHT22;6979;52.116;5.286;2024-01-07T01:32:38;6.20;99.90
13817;DHT22;6979;52.116;5.286;2024-01-07T01:35:06;6.10;99.90
13817;DHT22;6979;52.116;5.286;2024-01-07T01:37:33;6.10;99.90
13817;DHT22;6979;52.116;5.286;2024-01-07T01:40:00;6.10;99.90
13817;DHT22;6979;52.116;5.286;2024-01-07T01:42:27;6.10;99.90
13817;DHT22;6979;52.116;5.286;2024-01-07T01:44:55;6.10;99.90
13817;DHT22;6979;52.116;5.286;2024-01-07T01:47:25;6.10;99.90
13817;DHT22;6979;52.116;5.286;2024-01-07T01:49:52;6.10;99.90
13817;DHT22;6979;52.116;5.286;2024-01-07T01:52:20;6.10;99.90
13817;DHT22;6979;52.116;5.286;2024-01-07T01:54:47;6.10;99.90
13817;DHT22;6979;52.116;5.286;2024-01-07T01:57:19;6.10;99.90
13817;DHT22;6979;52.116;5.286;2024-01-07T01:59:46;6.10;99.90
13817;DHT22;6979;52.116;5.286;2024-01-07T02:02:15;6.10;99.90
13817;DHT22;6979;52.116;5.286;2024-01-07T02:04:42;6.10;99.90
13817;DHT22;6979;52.116;5.286;2024-01-07T02:07:09;6.10;99.90
13817;DHT22;6979;52.116;5.286;2024-01-07T02:09:39;6.10;99.90
13817;DHT22;6979;52.116;5.286;2024-01-07T02:12:09;6.10;99.90
13817;DHT22;6979;52.116;5.286;2024-01-07T02:14:37;6.10;99.90
13817;DHT22;6979;52.116;5.286;2024-01-07T02:17:07;6.10;99.90
13817;DHT22;6979;52.116;5.286;2024-01-07T02:19:35;6.10;99.90
13817;DHT22;6979;52.116;5.286;2024-01-07T02:22:03;6.10;99.90
13817;DHT22;6979;52.116;5.286;2024-01-07T02:24:32;6.10;99.90
13817;DHT22;6979;52.116;5.286;2024-01-07T02:27:00;6.10;99.90
13817;DHT22;6979;52.116;5.286;2024-01-07T02:29:28;6.10;99.90
13817;DHT22;6979;52.116;5.286;2024-01-07T02:31:57;6.10;99.90
13817;DHT22;6979;52.116;5.286;2024-01-07T02:34:24;6.10;99.90
13817;DHT22;6979;52.116;5.286;2024-01-07T02:36:51;6.10;99.90
13817;DHT22;6979;52.116;5.286;2024-01-07T02:39:18;6.10;99.90
13817;DHT22;6979;52.116;5.286;2024-01-07T02:41:46;6.10;99.90
13817;DHT22;6979;52.116;5.286;2024-01-07T02:44:14;6.10;99.90
13817;DHT22;6979;52.116;5.286;2024-01-07T02:46:41;6.20;99.90
13817;DHT22;6979;52.116;5.286;2024-01-07T02:49:08;6.20;99.90
13817;DHT22;6979;52.116;5.286;2024-01-07T02:51:34;6.20;99.90
13817;DHT22;6979;52.116;5.286;2024-01-07T02:54:01;6.20;99.90
13817;DHT22;6979;52.116;5.286;2024-01-07T02:56:28;6.20;99.90
13817;DHT22;6979;52.116;5.286;2024-01-07T02:58:56;6.20;99.90
13817;DHT22;6979;52.116;5.286;2024-01-07T03:01:23;6.20;99.90
13817;DHT22;6979;52.116;5.286;2024-01-07T03:03:50;6.20;99.90
13817;DHT22;6979;52.116;5.286;2024-01-07T03:06:17;6.10;99.90
13817;DHT22;6979;52.116;5.286;2024-01-07T03:08:44;6.20;99.90
13817;DHT22;6979;52.116;5.286;2024-01-07T03:11:11;6.20;99.90
13817;DHT22;6979;52.116;5.286;2024-01-07T03:13:38;6.10;99.90
13817;DHT22;6979;52.116;5.286;2024-01-07T03:16:07;6.10;99.90
13817;DHT22;6979;52.116;5.286;2024-01-07T03:18:36;6.10;99.90
13817;DHT22;6979;52.116;5.286;2024-01-07T03:21:05;6.10;99.90
13817;DHT22;6979;52.116;5.286;2024-01-07T03:23:39;6.10;99.90
13817;DHT22;6979;52.116;5.286;2024-01-07T03:26:06;6.10;99.90
13817;DHT22;6979;52.116;5.286;2024-01-07T03:28:33;6.10;99.90
13817;DHT22;6979;52.116;5.286;2024-01-07T03:31:04;6.10;99.90
13817;DHT22;6979;52.116;5.286;2024-01-07T03:33:33;6.10;99.90
13817;DHT22;6979;52.116;5.286;2024-01-07T03:36:02;6.00;99.90
13817;DHT22;6979;52.116;5.286;2024-01-07T03:38:32;6.10;99.90
13817;DHT22;6979;52.116;5.286;2024-01-07T03:40:59;6.10;99.90
13817;DHT22;6979;52.116;5.286;2024-01-07T03:43:26;6.10;99.90
13817;DHT22;6979;52.116;5.286;2024-01-07T03:45:53;6.10;99.90
13817;DHT22;6979;52.116;5.286;2024-01-07T03:48:20;6.10;99.90
13817;DHT22;6979;52.116;5.286;2024-01-07T03:50:48;6.10;99.90
13817;DHT22;6979;52.116;5.286;2024-01-07T03:53:15;6.10;99.90
13817;DHT22;6979;52.116;5.286;2024-01-07T03:55:45;6.10;99.90
13817;DHT22;6979;52.116;5.286;2024-01-07T03:58:13;6.10;99.90
13817;DHT22;6979;52.116;5.286;2024-01-07T04:00:40;6.10;99.90
13817;DHT22;6979;52.116;5.286;2024-01-07T04:03:07;6.10;99.90
13817;DHT22;6979;52.116;5.286;2024-01-07T04:05:34;6.00;99.90
13817;DHT22;6979;52.116;5.286;2024-01-07T04:08:02;6.10;99.90
13817;DHT22;6979;52.116;5.286;2024-01-07T04:10:29;6.10;99.90
13817;DHT22;6979;52.116;5.286;2024-01-07T04:12:56;6.10;99.90
13817;DHT22;6979;52.116;5.286;2024-01-07T04:15:23;6.00;99.90
13817;DHT22;6979;52.116;5.286;2024-01-07T04:17:50;6.10;99.90
13817;DHT22;6979;52.116;5.286;2024-01-07T04:20:17;6.10;99.90
13817;DHT22;6979;52.116;5.286;2024-01-07T04:22:45;6.10;99.90
13817;DHT22;6979;52.116;5.286;2024-01-07T04:25:14;6.10;99.90
13817;DHT22;6979;52.116;5.286;2024-01-07T04:27:40;6.00;99.90
13817;DHT22;6979;52.116;5.286;2024-01-07T04:30:07;6.10;99.90
13817;DHT22;6979;52.116;5.286;2024-01-07T04:32:34;6.00;99.90
13817;DHT22;6979;52.116;5.286;2024-01-07T04:35:01;6.00;99.90
13817;DHT22;6979;52.116;5.286;2024-01-07T04:37:28;6.00;99.90
13817;DHT22;6979;52.116;5.286;2024-01-07T04:40:00;6.00;99.90
13817;DHT22;6979;52.116;5.286;2024-01-07T04:42:29;6.00;99.90
13817;DHT22;6979;52.116;5.286;2024-01-07T04:44:56;6.00;99.90
13817;DHT22;6979;52.116;5.286;2024-01-07T04:47:29;6.00;99.90
13817;DHT22;6979;52.116;5.286;2024-01-07T04:49:57;6.00;99.90
13817;DHT22;6979;52.116;5.286;2024-01-07T04:52:27;6.00;99.90
13817;DHT22;6979;52.116;5.286;2024-01-07T04:54:54;6.00;99.90
13817;DHT22;6979;52.116;5.286;2024-01-07T04:57:21;6.00;99.90
13817;DHT22;6979;52.116;5.286;2024-01-07T04:59:50;6.00;99.90
13817;DHT22;6979;52.116;5.286;2024-01-07T05:02:17;6.00;99.90
13817;DHT22;6979;52.116;5.286;2024-01-07T05:04:44;6.00;99.90
13817;DHT22;6979;52.116;5.286;2024-01-07T05:07:11;6.00;99.90
13817;DHT22;6979;52.116;5.286;2024-01-07T05:09:39;5.90;99.90
13817;DHT22;6979;52.116;5.286;2024-01-07T05:12:06;6.00;99.90
13817;DHT22;6979;52.116;5.286;2024-01-07T05:14:33;6.00;99.90
13817;DHT22;6979;52.116;5.286;2024-01-07T05:17:04;5.90;99.90
13817;DHT22;6979;52.116;5.286;2024-01-07T05:19:31;5.90;99.90
13817;DHT22;6979;52.116;5.286;2024-01-07T05:21:58;5.90;99.90
13817;DHT22;6979;52.116;5.286;2024-01-07T05:24:25;5.90;99.90
13817;DHT22;6979;52.116;5.286;2024-01-07T05:26:53;5.90;99.90
13817;DHT22;6979;52.116;5.286;2024-01-07T05:29:20;5.90;99.90
13817;DHT22;6979;52.116;5.286;2024-01-07T05:31:47;5.90;99.90
13817;DHT22;6979;52.116;5.286;2024-01-07T05:34:16;5.90;99.90
13817;DHT22;6979;52.116;5.286;2024-01-07T05:36:43;5.90;99.90
13817;DHT22;6979;52.116;5.286;2024-01-07T05:39:09;5.90;99.90
13817;DHT22;6979;52.116;5.286;2024-01-07T05:41:37;5.90;99.90
13817;DHT22;6979;52.116;5.286;2024-01-07T05:44:06;5.90;99.90
13817;DHT22;6979;52.116;5.286;2024-01-07T05:46:33;5.80;99.90
13817;DHT22;6979;52.116;5.286;2024-01-07T05:49:00;5.80;99.90
13817;DHT22;6979;52.116;5.286;2024-01-07T05:51:29;5.90;99.90
13817;DHT22;6979;52.116;5.286;2024-01-07T05:53:55;5.80;99.90
13817;DHT22;6979;52.116;5.286;2024-01-07T05:56:22;5.80;99.90
13817;DHT22;6979;52.116;5.286;2024-01-07T05:58:49;5.80;99.90
13817;DHT22;6979;52.116;5.286;2024-01-07T06:01:19;5.80;99.90
13817;DHT22;6979;52.116;5.286;2024-01-07T06:03:46;5.80;99.90
13817;DHT22;6979;52.116;5.286;2024-01-07T06:06:13;5.80;99.90
13817;DHT22;6979;52.116;5.286;2024-01-07T06:08:41;5.80;99.90
13817;DHT22;6979;52.116;5.286;2024-01-07T06:11:09;5.80;99.90
13817;DHT22;6979;52.116;5.286;2024-01-07T06:13:36;5.80;99.90
13817;DHT22;6979;52.116;5.286;2024-01-07T06:16:04;5.80;99.90
13817;DHT22;6979;52.116;5.286;2024-01-07T06:18:34;5.80;99.90
13817;DHT22;6979;52.116;5.286;2024-01-07T06:21:00;5.80;99.90
13817;DHT22;6979;52.116;5.286;2024-01-07T06:23:27;5.80;99.90
13817;DHT22;6979;52.116;5.286;2024-01-07T06:25:55;5.80;99.90
13817;DHT22;6979;52.116;5.286;2024-01-07T06:28:22;5.80;99.90
13817;DHT22;6979;52.116;5.286;2024-01-07T06:30:49;5.80;99.90
13817;DHT22;6979;52.116;5.286;2024-01-07T06:33:16;5.80;99.90
13817;DHT22;6979;52.116;5.286;2024-01-07T06:35:43;5.80;99.90
13817;DHT22;6979;52.116;5.286;2024-01-07T06:38:10;5.80;99.90
13817;DHT22;6979;52.116;5.286;2024-01-07T06:40:37;5.80;99.90
13817;DHT22;6979;52.116;5.286;2024-01-07T06:43:06;5.70;99.90
13817;DHT22;6979;52.116;5.286;2024-01-07T06:45:33;5.70;99.90
13817;DHT22;6979;52.116;5.286;2024-01-07T06:48:00;5.70;99.90
13817;DHT22;6979;52.116;5.286;2024-01-07T06:50:27;5.80;99.90
13817;DHT22;6979;52.116;5.286;2024-01-07T06:52:54;5.80;99.90
13817;DHT22;6979;52.116;5.286;2024-01-07T06:55:22;5.80;99.90
13817;DHT22;6979;52.116;5.286;2024-01-07T06:57:48;5.70;99.90
13817;DHT22;6979;52.116;5.286;2024-01-07T07:00:17;5.70;99.90
13817;DHT22;6979;52.116;5.286;2024-01-07T07:02:44;5.70;99.90
13817;DHT22;6979;52.116;5.286;2024-01-07T07:05:12;5.70;99.90
13817;DHT22;6979;52.116;5.286;2024-01-07T07:07:38;5.80;99.90
13817;DHT22;6979;52.116;5.286;2024-01-07T07:10:07;5.70;99.90
13817;DHT22;6979;52.116;5.286;2024-01-07T07:12:34;5.70;99.90
13817;DHT22;6979;52.116;5.286;2024-01-07T07:15:03;5.70;99.90
13817;DHT22;6979;52.116;5.286;2024-01-07T07:17:31;5.70;99.90
13817;DHT22;6979;52.116;5.286;2024-01-07T07:20:01;5.70;99.90
13817;DHT22;6979;52.116;5.286;2024-01-07T07:22:28;5.70;99.90
13817;DHT22;6979;52.116;5.286;2024-01-07T07:24:55;5.70;99.90
13817;DHT22;6979;52.116;5.286;2024-01-07T07:27:22;5.70;99.90
13817;DHT22;6979;52.116;5.286;2024-01-07T07:29:49;5.70;99.90
13817;DHT22;6979;52.116;5.286;2024-01-07T07:32:16;5.70;99.90
13817;DHT22;6979;52.116;5.286;2024-01-07T07:34:45;5.70;99.90
13817;DHT22;6979;52.116;5.286;2024-01-07T07:37:15;5.60;99.90
13817;DHT22;6979;52.116;5.286;2024-01-07T07:39:45;5.60;99.90
13817;DHT22;6979;52.116;5.286;2024-01-07T07:42:15;5.60;99.90
13817;DHT22;6979;52.116;5.286;2024-01-07T07:44:41;5.60;99.90
13817;DHT22;6979;52.116;5.286;2024-01-07T07:47:09;5.60;99.90
13817;DHT22;6979;52.116;5.286;2024-01-07T07:49:37;5.60;99.90
13817;DHT22;6979;52.116;5.286;2024-01-07T07:52:07;5.60;99.90
13817;DHT22;6979;52.116;5.286;2024-01-07T07:54:34;5.60;99.90
13817;DHT22;6979;52.116;5.286;2024-01-07T07:57:03;5.60;99.90
13817;DHT22;6979;52.116;5.286;2024-01-07T07:59:30;5.60;99.90
13817;DHT22;6979;52.116;5.286;2024-01-07T08:01:57;5.60;99.90
13817;DHT22;6979;52.116;5.286;2024-01-07T08:04:24;5.60;99.90
13817;DHT22;6979;52.116;5.286;2024-01-07T08:06:52;5.60;99.90
13817;DHT22;6979;52.116;5.286;2024-01-07T08:09:20;5.60;99.90
13817;DHT22;6979;52.116;5.286;2024-01-07T08:11:47;5.60;99.90
13817;DHT22;6979;52.116;5.286;2024-01-07T08:14:14;5.60;99.90
13817;DHT22;6979;52.116;5.286;2024-01-07T08:16:41;5.60;99.90
13817;DHT22;6979;52.116;5.286;2024-01-07T08:19:07;5.60;99.90
13817;DHT22;6979;52.116;5.286;2024-01-07T08:21:35;5.60;99.90
13817;DHT22;6979;52.116;5.286;2024-01-07T08:24:02;5.60;99.90
13817;DHT22;6979;52.116;5.286;2024-01-07T08:26:31;5.60;99.90
13817;DHT22;6979;52.116;5.286;2024-01-07T08:28:58;5.60;99.90
13817;DHT22;6979;52.116;5.286;2024-01-07T08:31:24;5.60;99.90
13817;DHT22;6979;52.116;5.286;2024-01-07T08:33:51;5.60;99.90
13817;DHT22;6979;52.116;5.286;2024-01-07T08:36:18;5.60;99.90
13817;DHT22;6979;52.116;5.286;2024-01-07T08:38:45;5.60;99.90
13817;DHT22;6979;52.116;5.286;2024-01-07T08:41:15;5.60;99.90
13817;DHT22;6979;52.116;5.286;2024-01-07T08:43:45;5.60;99.90
13817;DHT22;6979;52.116;5.286;2024-01-07T08:46:12;5.60;99.90
13817;DHT22;6979;52.116;5.286;2024-01-07T08:48:40;5.60;99.90
13817;DHT22;6979;52.116;5.286;2024-01-07T08:51:06;5.60;99.90
13817;DHT22;6979;52.116;5.286;2024-01-07T08:53:33;5.50;99.90
13817;DHT22;6979;52.116;5.286;2024-01-07T08:56:00;5.50;99.90
13817;DHT22;6979;52.116;5.286;2024-01-07T08:58:27;5.50;99.90
13817;DHT22;6979;52.116;5.286;2024-01-07T09:00:55;5.50;99.90
13817;DHT22;6979;52.116;5.286;2024-01-07T09:03:23;5.50;99.90
13817;DHT22;6979;52.116;5.286;2024-01-07T09:05:50;5.50;99.90
13817;DHT22;6979;52.116;5.286;2024-01-07T09:08:18;5.50;99.90
13817;DHT22;6979;52.116;5.286;2024-01-07T09:10:46;5.50;99.90
13817;DHT22;6979;52.116;5.286;2024-01-07T09:13:13;5.50;99.90
13817;DHT22;6979;52.116;5.286;2024-01-07T09:15:39;5.50;99.90
13817;DHT22;6979;52.116;5.286;2024-01-07T09:18:10;5.50;99.90
13817;DHT22;6979;52.116;5.286;2024-01-07T09:20:38;5.50;99.90
13817;DHT22;6979;52.116;5.286;2024-01-07T09:23:05;5.50;99.90
13817;DHT22;6979;52.116;5.286;2024-01-07T09:25:31;5.50;99.90
13817;DHT22;6979;52.116;5.286;2024-01-07T09:27:58;5.50;99.90
13817;DHT22;6979;52.116;5.286;2024-01-07T09:30:29;5.50;99.90
13817;DHT22;6979;52.116;5.286;2024-01-07T09:32:55;5.60;99.90
13817;DHT22;6979;52.116;5.286;2024-01-07T09:35:24;5.60;99.90
13817;DHT22;6979;52.116;5.286;2024-01-07T09:37:52;5.60;99.90
13817;DHT22;6979;52.116;5.286;2024-01-07T09:40:20;5.60;99.90
13817;DHT22;6979;52.116;5.286;2024-01-07T09:42:50;5.60;99.90
13817;DHT22;6979;52.116;5.286;2024-01-07T09:45:18;5.60;99.90
13817;DHT22;6979;52.116;5.286;2024-01-07T09:47:45;5.60;99.90
13817;DHT22;6979;52.116;5.286;2024-01-07T09:50:13;5.60;99.90
13817;DHT22;6979;52.116;5.286;2024-01-07T09:52:44;5.60;99.90
13817;DHT22;6979;52.116;5.286;2024-01-07T09:55:18;5.60;99.90
13817;DHT22;6979;52.116;5.286;2024-01-07T09:57:48;5.60;99.90
13817;DHT22;6979;52.116;5.286;2024-01-07T10:00:17;5.60;99.90
13817;DHT22;6979;52.116;5.286;2024-01-07T10:02:44;5.60;99.90
13817;DHT22;6979;52.116;5.286;2024-01-07T10:05:11;5.60;99.90
13817;DHT22;6979;52.116;5.286;2024-01-07T10:07:38;5.60;99.90
13817;DHT22;6979;52.116;5.286;2024-01-07T10:10:14;5.60;99.90
13817;DHT22;6979;52.116;5.286;2024-01-07T10:12:43;5.60;99.90
13817;DHT22;6979;52.116;5.286;2024-01-07T10:15:11;5.60;99.90
13817;DHT22;6979;52.116;5.286;2024-01-07T10:17:39;5.60;99.90
13817;DHT22;6979;52.116;5.286;2024-01-07T10:20:08;5.60;99.90
13817;DHT22;6979;52.116;5.286;2024-01-07T10:22:38;5.60;99.90
13817;DHT22;6979;52.116;5.286;2024-01-07T10:25:06;5.60;99.90
13817;DHT22;6979;52.116;5.286;2024-01-07T10:27:35;5.70;99.90
13817;DHT22;6979;52.116;5.286;2024-01-07T10:30:04;5.70;99.90
13817;DHT22;6979;52.116;5.286;2024-01-07T10:32:32;5.70;99.90
13817;DHT22;6979;52.116;5.286;2024-01-07T10:35:02;5.70;99.90
13817;DHT22;6979;52.116;5.286;2024-01-07T10:37:31;5.70;99.90
13817;DHT22;6979;52.116;5.286;2024-01-07T10:40:00;5.70;99.90
13817;DHT22;6979;52.116;5.286;2024-01-07T10:42:31;5.80;99.90
13817;DHT22;6979;52.116;5.286;2024-01-07T10:45:03;5.80;99.90
13817;DHT22;6979;52.116;5.286;2024-01-07T10:47:31;5.90;99.90
13817;DHT22;6979;52.116;5.286;2024-01-07T10:49:59;6.00;99.90
13817;DHT22;6979;52.116;5.286;2024-01-07T10:52:27;6.00;99.90
13817;DHT22;6979;52.116;5.286;2024-01-07T10:55:03;6.10;99.90
13817;DHT22;6979;52.116;5.286;2024-01-07T10:57:41;6.30;99.90
13817;DHT22;6979;52.116;5.286;2024-01-07T11:00:13;6.50;99.90
13817;DHT22;6979;52.116;5.286;2024-01-07T11:02:53;6.70;99.90
13817;DHT22;6979;52.116;5.286;2024-01-07T11:05:27;7.00;99.90
13817;DHT22;6979;52.116;5.286;2024-01-07T11:08:03;7.20;99.90
13817;DHT22;6979;52.116;5.286;2024-01-07T11:10:38;7.40;99.90
13817;DHT22;6979;52.116;5.286;2024-01-07T11:13:09;7.60;99.90
13817;DHT22;6979;52.116;5.286;2024-01-07T11:15:55;7.70;99.90
13817;DHT22;6979;52.116;5.286;2024-01-07T11:18:23;7.90;99.90
13817;DHT22;6979;52.116;5.286;2024-01-07T11:20:50;8.10;99.90
13817;DHT22;6979;52.116;5.286;2024-01-07T11:23:29;8.20;99.90
13817;DHT22;6979;52.116;5.286;2024-01-07T11:25:57;8.40;99.90
13817;DHT22;6979;52.116;5.286;2024-01-07T11:28:46;8.60;99.90
13817;DHT22;6979;52.116;5.286;2024-01-07T11:31:16;8.70;99.90
13817;DHT22;6979;52.116;5.286;2024-01-07T11:33:45;8.90;99.90
13817;DHT22;6979;52.116;5.286;2024-01-07T11:36:12;8.90;99.90
13817;DHT22;6979;52.116;5.286;2024-01-07T11:38:45;8.90;99.90
13817;DHT22;6979;52.116;5.286;2024-01-07T11:41:16;8.90;99.90
13817;DHT22;6979;52.116;5.286;2024-01-07T11:43:54;8.90;99.90
13817;DHT22;6979;52.116;5.286;2024-01-07T11:46:23;8.80;99.90
13817;DHT22;6979;52.116;5.286;2024-01-07T11:48:50;8.80;99.90
13817;DHT22;6979;52.116;5.286;2024-01-07T11:51:19;8.80;99.90
13817;DHT22;6979;52.116;5.286;2024-01-07T11:53:46;8.80;99.90
13817;DHT22;6979;52.116;5.286;2024-01-07T11:56:13;8.80;99.90
13817;DHT22;6979;52.116;5.286;2024-01-07T11:58:42;8.80;99.90
13817;DHT22;6979;52.116;5.286;2024-01-07T12:01:08;8.80;99.90
13817;DHT22;6979;52.116;5.286;2024-01-07T12:03:37;8.80;99.90
13817;DHT22;6979;52.116;5.286;2024-01-07T12:06:04;8.80;99.90
13817;DHT22;6979;52.116;5.286;2024-01-07T12:08:31;8.90;99.90
13817;DHT22;6979;52.116;5.286;2024-01-07T12:11:01;9.00;99.90
13817;DHT22;6979;52.116;5.286;2024-01-07T12:13:28;9.00;99.90
13817;DHT22;6979;52.116;5.286;2024-01-07T12:15:55;9.10;99.90
13817;DHT22;6979;52.116;5.286;2024-01-07T12:18:22;9.30;99.90
13817;DHT22;6979;52.116;5.286;2024-01-07T12:20:56;9.50;99.90
13817;DHT22;6979;52.116;5.286;2024-01-07T12:23:26;9.70;99.90
13817;DHT22;6979;52.116;5.286;2024-01-07T12:25:53;9.90;99.90
13817;DHT22;6979;52.116;5.286;2024-01-07T12:28:21;10.10;99.90
13817;DHT22;6979;52.116;5.286;2024-01-07T12:30:48;10.20;99.90
13817;DHT22;6979;52.116;5.286;2024-01-07T12:33:17;10.40;99.90
13817;DHT22;6979;52.116;5.286;2024-01-07T12:35:45;10.60;99.90
13817;DHT22;6979;52.116;5.286;2024-01-07T12:38:13;10.70;99.90
13817;DHT22;6979;52.116;5.286;2024-01-07T12:40:40;10.90;99.90
13817;DHT22;6979;52.116;5.286;2024-01-07T12:43:07;11.00;99.90
13817;DHT22;6979;52.116;5.286;2024-01-07T12:45:34;11.10;99.90
13817;DHT22;6979;52.116;5.286;2024-01-07T12:48:01;11.20;99.90
13817;DHT22;6979;52.116;5.286;2024-01-07T12:50:28;11.20;99.90
13817;DHT22;6979;52.116;5.286;2024-01-07T12:52:56;11.30;99.90
13817;DHT22;6979;52.116;5.286;2024-01-07T12:55:24;11.30;99.90
13817;DHT22;6979;52.116;5.286;2024-01-07T12:57:54;11.40;99.90
13817;DHT22;6979;52.116;5.286;2024-01-07T13:00:24;11.60;99.90
13817;DHT22;6979;52.116;5.286;2024-01-07T13:02:52;11.80;99.90
13817;DHT22;6979;52.116;5.286;2024-01-07T13:05:19;12.10;99.90
13817;DHT22;6979;52.116;5.286;2024-01-07T13:07:48;12.30;99.90
13817;DHT22;6979;52.116;5.286;2024-01-07T13:10:17;12.60;99.90
13817;DHT22;6979;52.116;5.286;2024-01-07T13:12:45;12.80;99.90
13817;DHT22;6979;52.116;5.286;2024-01-07T13:15:12;13.00;99.90
13817;DHT22;6979;52.116;5.286;2024-01-07T13:17:42;13.20;99.90
13817;DHT22;6979;52.116;5.286;2024-01-07T13:20:09;13.40;99.90
13817;DHT22;6979;52.116;5.286;2024-01-07T13:22:37;13.60;99.90
13817;DHT22;6979;52.116;5.286;2024-01-07T13:25:04;13.80;99.90
13817;DHT22;6979;52.116;5.286;2024-01-07T13:27:32;14.00;99.90
13817;DHT22;6979;52.116;5.286;2024-01-07T13:30:01;14.20;99.90
13817;DHT22;6979;52.116;5.286;2024-01-07T13:32:28;14.40;99.90
13817;DHT22;6979;52.116;5.286;2024-01-07T13:34:55;14.50;99.90
13817;DHT22;6979;52.116;5.286;2024-01-07T13:37:22;14.70;99.90
13817;DHT22;6979;52.116;5.286;2024-01-07T13:39:49;14.70;99.90
13817;DHT22;6979;52.116;5.286;2024-01-07T13:42:16;14.60;99.90
13817;DHT22;6979;52.116;5.286;2024-01-07T13:44:43;14.50;99.90
13817;DHT22;6979;52.116;5.286;2024-01-07T13:47:13;14.30;99.90
13817;DHT22;6979;52.116;5.286;2024-01-07T13:49:42;14.20;99.90
13817;DHT22;6979;52.116;5.286;2024-01-07T13:52:10;14.10;99.90
13817;DHT22;6979;52.116;5.286;2024-01-07T13:54:37;13.90;99.90
13817;DHT22;6979;52.116;5.286;2024-01-07T13:57:04;13.70;99.90
13817;DHT22;6979;52.116;5.286;2024-01-07T13:59:34;13.50;99.90
13817;DHT22;6979;52.116;5.286;2024-01-07T14:02:01;13.30;99.90
13817;DHT22;6979;52.116;5.286;2024-01-07T14:04:30;13.10;99.90
13817;DHT22;6979;52.116;5.286;2024-01-07T14:06:59;12.80;99.90
13817;DHT22;6979;52.116;5.286;2024-01-07T14:09:26;12.60;99.90
13817;DHT22;6979;52.116;5.286;2024-01-07T14:11:58;12.30;99.90
13817;DHT22;6979;52.116;5.286;2024-01-07T14:14:25;12.00;99.90
13817;DHT22;6979;52.116;5.286;2024-01-07T14:16:52;11.80;99.90
13817;DHT22;6979;52.116;5.286;2024-01-07T14:19:20;11.50;99.90
13817;DHT22;6979;52.116;5.286;2024-01-07T14:21:49;11.30;99.90
13817;DHT22;6979;52.116;5.286;2024-01-07T14:24:17;11.10;99.90
13817;DHT22;6979;52.116;5.286;2024-01-07T14:26:44;10.90;99.90
13817;DHT22;6979;52.116;5.286;2024-01-07T14:29:11;10.80;99.90
13817;DHT22;6979;52.116;5.286;2024-01-07T14:31:39;10.60;99.90
13817;DHT22;6979;52.116;5.286;2024-01-07T14:34:07;10.40;99.90
13817;DHT22;6979;52.116;5.286;2024-01-07T14:36:34;10.20;99.90
13817;DHT22;6979;52.116;5.286;2024-01-07T14:39:02;10.00;99.90
13817;DHT22;6979;52.116;5.286;2024-01-07T14:41:31;9.80;99.90
13817;DHT22;6979;52.116;5.286;2024-01-07T14:43:58;9.60;99.90
13817;DHT22;6979;52.116;5.286;2024-01-07T14:46:25;9.50;99.90
13817;DHT22;6979;52.116;5.286;2024-01-07T14:48:52;9.40;99.90
13817;DHT22;6979;52.116;5.286;2024-01-07T14:51:20;9.30;99.90
13817;DHT22;6979;52.116;5.286;2024-01-07T14:53:47;9.20;99.90
13817;DHT22;6979;52.116;5.286;2024-01-07T14:56:16;9.20;99.90
13817;DHT22;6979;52.116;5.286;2024-01-07T14:58:43;9.10;99.90
13817;DHT22;6979;52.116;5.286;2024-01-07T15:01:11;9.00;99.90
13817;DHT22;6979;52.116;5.286;2024-01-07T15:03:40;9.00;99.90
13817;DHT22;6979;52.116;5.286;2024-01-07T15:06:09;9.00;99.90
13817;DHT22;6979;52.116;5.286;2024-01-07T15:08:37;8.90;99.90
13817;DHT22;6979;52.116;5.286;2024-01-07T15:11:04;8.90;99.90
13817;DHT22;6979;52.116;5.286;2024-01-07T15:13:32;8.90;99.90
13817;DHT22;6979;52.116;5.286;2024-01-07T15:16:00;8.80;99.90
13817;DHT22;6979;52.116;5.286;2024-01-07T15:18:27;8.70;99.90
13817;DHT22;6979;52.116;5.286;2024-01-07T15:20:54;8.60;99.90
13817;DHT22;6979;52.116;5.286;2024-01-07T15:23:21;8.50;99.90
13817;DHT22;6979;52.116;5.286;2024-01-07T15:25:48;8.30;99.90
13817;DHT22;6979;52.116;5.286;2024-01-07T15:28:15;8.20;99.90
13817;DHT22;6979;52.116;5.286;2024-01-07T15:30:45;8.00;99.90
13817;DHT22;6979;52.116;5.286;2024-01-07T15:33:12;7.90;99.90
13817;DHT22;6979;52.116;5.286;2024-01-07T15:35:39;7.70;99.90
13817;DHT22;6979;52.116;5.286;2024-01-07T15:38:06;7.60;99.90
13817;DHT22;6979;52.116;5.286;2024-01-07T15:40:33;7.40;99.90
13817;DHT22;6979;52.116;5.286;2024-01-07T15:43:00;7.30;99.90
13817;DHT22;6979;52.116;5.286;2024-01-07T15:45:28;7.20;99.90
13817;DHT22;6979;52.116;5.286;2024-01-07T15:47:56;7.10;99.90
13817;DHT22;6979;52.116;5.286;2024-01-07T15:50:23;7.00;99.90
13817;DHT22;6979;52.116;5.286;2024-01-07T15:52:50;6.80;99.90
13817;DHT22;6979;52.116;5.286;2024-01-07T15:55:17;6.70;99.90
13817;DHT22;6979;52.116;5.286;2024-01-07T15:57:44;6.60;99.90
13817;DHT22;6979;52.116;5.286;2024-01-07T16:00:12;6.50;99.90
13817;DHT22;6979;52.116;5.286;2024-01-07T16:02:39;6.40;99.90
13817;DHT22;6979;52.116;5.286;2024-01-07T16:05:08;6.30;99.90